FIA6752 LUKK-LBBG
Flight info
| Callsign | FIA6752 |
|---|---|
| Flight time | 1h 7m |
| Altitude | 32000 |
| Route | LIPTA T34 KODRU DCT RIPGA DCT NENKO/N0439F330 DCT RUTAR |
| Aircraft | A321/M-SDE3FGHIRWY/LB1 |
Departure
| Time | 2026-04-28 20:06 |
|---|---|
| Airport | Chişinău International Airport (LUKK) |
Arrival
| Time | 2026-04-28 21:14 |
|---|---|
| Airport | Burgas Airport (LBBG) |
| Time | Latitude | Longitude | Altitude | Speed | Heading |
|---|---|---|---|---|---|
| 2026-04-28 19:32 | 46.93274 | 28.93553 | 313 ft | 0 kts | 277° |
| 2026-04-28 19:55 | 46.93274 | 28.93554 | 313 ft | 0 kts | 277° |
| 2026-04-28 19:55 | 46.93274 | 28.93545 | 313 ft | 3 kts | 277° |
| 2026-04-28 19:55 | 46.93277 | 28.93503 | 315 ft | 2 kts | 271° |
| 2026-04-28 19:56 | 46.93277 | 28.93501 | 315 ft | 0 kts | 272° |
| 2026-04-28 19:56 | 46.93277 | 28.93499 | 315 ft | 0 kts | 270° |
| 2026-04-28 19:56 | 46.93277 | 28.93485 | 315 ft | 0 kts | 266° |
| 2026-04-28 19:57 | 46.93277 | 28.93483 | 315 ft | 0 kts | 258° |
| 2026-04-28 19:57 | 46.93260 | 28.93465 | 316 ft | 3 kts | 199° |
| 2026-04-28 19:57 | 46.93247 | 28.93460 | 316 ft | 0 kts | 192° |
| 2026-04-28 19:59 | 46.93226 | 28.93455 | 316 ft | 6 kts | 190° |
| 2026-04-28 19:59 | 46.93172 | 28.93436 | 318 ft | 8 kts | 210° |
| 2026-04-28 20:00 | 46.93159 | 28.93329 | 320 ft | 12 kts | 279° |
| 2026-04-28 20:00 | 46.93174 | 28.93181 | 323 ft | 16 kts | 277° |
| 2026-04-28 20:00 | 46.93191 | 28.92998 | 327 ft | 19 kts | 278° |
| 2026-04-28 20:00 | 46.93208 | 28.92797 | 331 ft | 18 kts | 277° |
| 2026-04-28 20:01 | 46.93223 | 28.92617 | 334 ft | 16 kts | 277° |
| 2026-04-28 20:01 | 46.93236 | 28.92459 | 338 ft | 14 kts | 277° |
| 2026-04-28 20:01 | 46.93246 | 28.92336 | 343 ft | 10 kts | 276° |
| 2026-04-28 20:01 | 46.93252 | 28.92257 | 348 ft | 4 kts | 276° |
| 2026-04-28 20:02 | 46.93256 | 28.92210 | 350 ft | 6 kts | 278° |
| 2026-04-28 20:02 | 46.93266 | 28.92106 | 357 ft | 12 kts | 273° |
| 2026-04-28 20:02 | 46.93203 | 28.92021 | 362 ft | 17 kts | 193° |
| 2026-04-28 20:02 | 46.93062 | 28.91988 | 363 ft | 22 kts | 180° |
| 2026-04-28 20:03 | 46.92910 | 28.91991 | 363 ft | 15 kts | 178° |
| 2026-04-28 20:03 | 46.92891 | 28.91992 | 363 ft | 0 kts | 178° |
| 2026-04-28 20:03 | 46.92888 | 28.91992 | 363 ft | 0 kts | 178° |
| 2026-04-28 20:03 | 46.92886 | 28.91993 | 363 ft | 3 kts | 178° |
| 2026-04-28 20:04 | 46.92809 | 28.91996 | 363 ft | 17 kts | 179° |
| 2026-04-28 20:04 | 46.92753 | 28.91885 | 368 ft | 14 kts | 269° |
| 2026-04-28 20:04 | 46.92750 | 28.91713 | 376 ft | 20 kts | 269° |
| 2026-04-28 20:04 | 46.92747 | 28.91471 | 384 ft | 26 kts | 269° |
| 2026-04-28 20:05 | 46.92742 | 28.91225 | 391 ft | 22 kts | 268° |
| 2026-04-28 20:05 | 46.92737 | 28.91013 | 396 ft | 19 kts | 268° |
| 2026-04-28 20:05 | 46.92760 | 28.90835 | 399 ft | 17 kts | 300° |
| 2026-04-28 20:05 | 46.92736 | 28.90773 | 400 ft | 8 kts | 114° |
| 2026-04-28 20:06 | 46.92734 | 28.90884 | 398 ft | 19 kts | 87° |
| 2026-04-28 20:06 | 46.92750 | 28.91544 | 382 ft | 108 kts | 89° |
| 2026-04-28 20:06 | 46.92780 | 28.93029 | 341 ft | 181 kts | 87° |
| 2026-04-28 20:06 | 46.92811 | 28.94915 | 1097 ft | 189 kts | 85° |
| 2026-04-28 20:07 | 46.92867 | 28.96797 | 2099 ft | 183 kts | 82° |
| 2026-04-28 20:07 | 46.92923 | 28.97971 | 2632 ft | 174 kts | 83° |
| 2026-04-28 20:07 | 46.92965 | 29.00299 | 3395 ft | 173 kts | 86° |
| 2026-04-28 20:07 | 46.92966 | 29.02083 | 3752 ft | 183 kts | 86° |
| 2026-04-28 20:08 | 46.92983 | 29.04011 | 4084 ft | 195 kts | 86° |
| 2026-04-28 20:08 | 46.92701 | 29.06005 | 4372 ft | 214 kts | 119° |
| 2026-04-28 20:08 | 46.91576 | 29.07474 | 4715 ft | 227 kts | 154° |
| 2026-04-28 20:08 | 46.89991 | 29.07922 | 5055 ft | 239 kts | 190° |
| 2026-04-28 20:09 | 46.88512 | 29.06897 | 5539 ft | 242 kts | 229° |
| 2026-04-28 20:09 | 46.87513 | 29.04942 | 6125 ft | 245 kts | 237° |
| 2026-04-28 20:09 | 46.86526 | 29.02812 | 6467 ft | 262 kts | 236° |
| 2026-04-28 20:09 | 46.85464 | 29.00571 | 7051 ft | 269 kts | 236° |
| 2026-04-28 20:10 | 46.84375 | 28.98390 | 7793 ft | 270 kts | 235° |
| 2026-04-28 20:10 | 46.83252 | 28.96217 | 8642 ft | 268 kts | 235° |
| 2026-04-28 20:10 | 46.82135 | 28.94083 | 9405 ft | 267 kts | 236° |
| 2026-04-28 20:10 | 46.81007 | 28.91942 | 10114 ft | 267 kts | 236° |
| 2026-04-28 20:11 | 46.79872 | 28.89791 | 10681 ft | 273 kts | 236° |
| 2026-04-28 20:11 | 46.78681 | 28.87531 | 10968 ft | 288 kts | 236° |
| 2026-04-28 20:11 | 46.77431 | 28.85166 | 11249 ft | 303 kts | 236° |
| 2026-04-28 20:11 | 46.76119 | 28.82693 | 11667 ft | 312 kts | 236° |
| 2026-04-28 20:12 | 46.74785 | 28.80189 | 12268 ft | 316 kts | 236° |
| 2026-04-28 20:12 | 46.73445 | 28.77676 | 12855 ft | 319 kts | 236° |
| 2026-04-28 20:12 | 46.72083 | 28.75123 | 13421 ft | 322 kts | 236° |
| 2026-04-28 20:12 | 46.71162 | 28.73401 | 13767 ft | 325 kts | 236° |
| 2026-04-28 20:13 | 46.69296 | 28.69906 | 14485 ft | 330 kts | 236° |
| 2026-04-28 20:13 | 46.67894 | 28.67283 | 15040 ft | 333 kts | 236° |
| 2026-04-28 20:13 | 46.66462 | 28.64610 | 15592 ft | 335 kts | 236° |
| 2026-04-28 20:13 | 46.65014 | 28.61908 | 16131 ft | 338 kts | 236° |
| 2026-04-28 20:14 | 46.63533 | 28.59280 | 16647 ft | 342 kts | 232° |
| 2026-04-28 20:14 | 46.61843 | 28.56840 | 17153 ft | 348 kts | 226° |
| 2026-04-28 20:14 | 46.59947 | 28.54639 | 17661 ft | 352 kts | 221° |
| 2026-04-28 20:14 | 46.57957 | 28.52540 | 18156 ft | 355 kts | 221° |
| 2026-04-28 20:15 | 46.55943 | 28.50449 | 18630 ft | 357 kts | 221° |
| 2026-04-28 20:15 | 46.53911 | 28.48340 | 19141 ft | 359 kts | 221° |
| 2026-04-28 20:15 | 46.51893 | 28.46242 | 19612 ft | 361 kts | 221° |
| 2026-04-28 20:15 | 46.49830 | 28.44094 | 20081 ft | 363 kts | 221° |
| 2026-04-28 20:16 | 46.47798 | 28.41977 | 20529 ft | 365 kts | 221° |
| 2026-04-28 20:16 | 46.45728 | 28.39821 | 20972 ft | 367 kts | 221° |
| 2026-04-28 20:16 | 46.43637 | 28.37648 | 21400 ft | 369 kts | 221° |
| 2026-04-28 20:16 | 46.41568 | 28.35496 | 21815 ft | 371 kts | 221° |
| 2026-04-28 20:17 | 46.39453 | 28.33295 | 22232 ft | 374 kts | 221° |
| 2026-04-28 20:17 | 46.37328 | 28.31079 | 22633 ft | 376 kts | 221° |
| 2026-04-28 20:17 | 46.35151 | 28.28813 | 23037 ft | 378 kts | 221° |
| 2026-04-28 20:17 | 46.33033 | 28.26613 | 23427 ft | 380 kts | 221° |
| 2026-04-28 20:18 | 46.30869 | 28.24369 | 23806 ft | 383 kts | 221° |
| 2026-04-28 20:18 | 46.29409 | 28.22858 | 24050 ft | 384 kts | 221° |
| 2026-04-28 20:18 | 46.26508 | 28.19861 | 24568 ft | 387 kts | 221° |
| 2026-04-28 20:18 | 46.24320 | 28.17604 | 24905 ft | 389 kts | 221° |
| 2026-04-28 20:19 | 46.22102 | 28.15323 | 25266 ft | 391 kts | 220° |
| 2026-04-28 20:19 | 46.19720 | 28.13358 | 25609 ft | 401 kts | 211° |
| 2026-04-28 20:19 | 46.17091 | 28.11956 | 25952 ft | 410 kts | 202° |
| 2026-04-28 20:19 | 46.14272 | 28.11118 | 26293 ft | 416 kts | 196° |
| 2026-04-28 20:20 | 46.11426 | 28.10473 | 26603 ft | 419 kts | 195° |
| 2026-04-28 20:20 | 46.08542 | 28.09854 | 26896 ft | 422 kts | 195° |
| 2026-04-28 20:20 | 46.05621 | 28.09223 | 27203 ft | 423 kts | 195° |
| 2026-04-28 20:20 | 46.02712 | 28.08588 | 27554 ft | 424 kts | 195° |
| 2026-04-28 20:21 | 45.99821 | 28.07951 | 27870 ft | 425 kts | 195° |
| 2026-04-28 20:21 | 45.96918 | 28.07306 | 28153 ft | 427 kts | 195° |
| 2026-04-28 20:21 | 45.93964 | 28.06646 | 28438 ft | 429 kts | 195° |
| 2026-04-28 20:21 | 45.91008 | 28.05986 | 28712 ft | 431 kts | 195° |
| 2026-04-28 20:22 | 45.88153 | 28.05350 | 28966 ft | 433 kts | 195° |
| 2026-04-28 20:22 | 45.85149 | 28.04685 | 29231 ft | 435 kts | 195° |
| 2026-04-28 20:22 | 45.82164 | 28.04024 | 29472 ft | 437 kts | 195° |
| 2026-04-28 20:22 | 45.79172 | 28.03362 | 29706 ft | 439 kts | 195° |
| 2026-04-28 20:23 | 45.76130 | 28.02688 | 29994 ft | 439 kts | 196° |
| 2026-04-28 20:23 | 45.73154 | 28.02030 | 30308 ft | 439 kts | 196° |
| 2026-04-28 20:23 | 45.70107 | 28.01354 | 30609 ft | 439 kts | 196° |
| 2026-04-28 20:23 | 45.67107 | 28.00688 | 30872 ft | 440 kts | 196° |
| 2026-04-28 20:24 | 45.64075 | 28.00015 | 31069 ft | 442 kts | 196° |
| 2026-04-28 20:24 | 45.61052 | 27.99343 | 31280 ft | 443 kts | 196° |
| 2026-04-28 20:24 | 45.57997 | 27.98667 | 31514 ft | 443 kts | 196° |
| 2026-04-28 20:24 | 45.54972 | 27.97998 | 31724 ft | 444 kts | 196° |
| 2026-04-28 20:25 | 45.51936 | 27.97328 | 31900 ft | 446 kts | 196° |
| 2026-04-28 20:25 | 45.48840 | 27.96646 | 32078 ft | 447 kts | 196° |
| 2026-04-28 20:25 | 45.45782 | 27.95973 | 32169 ft | 450 kts | 196° |
| 2026-04-28 20:26 | 45.39568 | 27.94609 | 32178 ft | 451 kts | 196° |
| 2026-04-28 20:26 | 45.33417 | 27.93264 | 32183 ft | 451 kts | 195° |
| 2026-04-28 20:27 | 45.27225 | 27.91915 | 32180 ft | 452 kts | 196° |
| 2026-04-28 20:27 | 45.21003 | 27.90676 | 32179 ft | 454 kts | 192° |
| 2026-04-28 20:28 | 45.14642 | 27.90322 | 32179 ft | 460 kts | 185° |
| 2026-04-28 20:28 | 45.08232 | 27.90633 | 32183 ft | 461 kts | 184° |
| 2026-04-28 20:29 | 45.01853 | 27.90957 | 32181 ft | 461 kts | 185° |
| 2026-04-28 20:29 | 44.95404 | 27.91269 | 32176 ft | 462 kts | 185° |
| 2026-04-28 20:30 | 44.89011 | 27.91573 | 32176 ft | 462 kts | 185° |
| 2026-04-28 20:30 | 44.82580 | 27.91881 | 32170 ft | 462 kts | 185° |
| 2026-04-28 20:31 | 44.76199 | 27.92183 | 32174 ft | 462 kts | 185° |
| 2026-04-28 20:31 | 44.69773 | 27.92483 | 32170 ft | 462 kts | 185° |
| 2026-04-28 20:32 | 44.63367 | 27.92782 | 32176 ft | 462 kts | 185° |
| 2026-04-28 20:32 | 44.56990 | 27.93081 | 32172 ft | 462 kts | 185° |
| 2026-04-28 20:33 | 44.50562 | 27.93382 | 32174 ft | 463 kts | 185° |
| 2026-04-28 20:33 | 44.44149 | 27.93680 | 32170 ft | 463 kts | 185° |
| 2026-04-28 20:34 | 44.37696 | 27.93980 | 32172 ft | 463 kts | 185° |
| 2026-04-28 20:34 | 44.31292 | 27.94275 | 32175 ft | 464 kts | 185° |
| 2026-04-28 20:35 | 44.24824 | 27.94574 | 32173 ft | 464 kts | 185° |
| 2026-04-28 20:35 | 44.18401 | 27.94872 | 32168 ft | 463 kts | 185° |
| 2026-04-28 20:36 | 44.11987 | 27.95167 | 32170 ft | 464 kts | 185° |
| 2026-04-28 20:36 | 44.05554 | 27.95463 | 32164 ft | 464 kts | 185° |
| 2026-04-28 20:37 | 43.99089 | 27.95760 | 32164 ft | 465 kts | 185° |
| 2026-04-28 20:37 | 43.92635 | 27.96056 | 32170 ft | 464 kts | 185° |
| 2026-04-28 20:38 | 43.86217 | 27.96353 | 32164 ft | 464 kts | 185° |
| 2026-04-28 20:38 | 43.79770 | 27.96649 | 32167 ft | 465 kts | 185° |
| 2026-04-28 20:39 | 43.73322 | 27.96950 | 32171 ft | 464 kts | 185° |
| 2026-04-28 20:39 | 43.70067 | 27.97097 | 31799 ft | 467 kts | 185° |
| 2026-04-28 20:39 | 43.66830 | 27.97261 | 31211 ft | 467 kts | 184° |
| 2026-04-28 20:39 | 43.63594 | 27.97449 | 30629 ft | 467 kts | 184° |
| 2026-04-28 20:40 | 43.60382 | 27.97645 | 30004 ft | 467 kts | 184° |
| 2026-04-28 20:40 | 43.57156 | 27.97843 | 29357 ft | 467 kts | 184° |
| 2026-04-28 20:40 | 43.53912 | 27.98044 | 28739 ft | 465 kts | 183° |
| 2026-04-28 20:40 | 43.50687 | 27.98243 | 28242 ft | 460 kts | 183° |
| 2026-04-28 20:41 | 43.47504 | 27.98441 | 27811 ft | 454 kts | 183° |
| 2026-04-28 20:41 | 43.44420 | 27.98633 | 27383 ft | 448 kts | 183° |
| 2026-04-28 20:41 | 43.41322 | 27.98821 | 26929 ft | 443 kts | 183° |
| 2026-04-28 20:41 | 43.38233 | 27.99011 | 26481 ft | 438 kts | 183° |
| 2026-04-28 20:42 | 43.35249 | 27.99193 | 26070 ft | 432 kts | 183° |
| 2026-04-28 20:42 | 43.32259 | 27.99374 | 25638 ft | 427 kts | 183° |
| 2026-04-28 20:42 | 43.29292 | 27.99554 | 25200 ft | 423 kts | 183° |
| 2026-04-28 20:42 | 43.26414 | 27.99730 | 24780 ft | 418 kts | 183° |
| 2026-04-28 20:43 | 43.23518 | 27.99905 | 24368 ft | 414 kts | 183° |
| 2026-04-28 20:43 | 43.20668 | 28.00077 | 23949 ft | 410 kts | 183° |
| 2026-04-28 20:43 | 43.17839 | 28.00248 | 23546 ft | 406 kts | 183° |
| 2026-04-28 20:43 | 43.15012 | 28.00417 | 23129 ft | 403 kts | 183° |
| 2026-04-28 20:44 | 43.12238 | 28.00584 | 22722 ft | 400 kts | 182° |
| 2026-04-28 20:44 | 43.09450 | 28.00753 | 22285 ft | 397 kts | 183° |
| 2026-04-28 20:44 | 43.06729 | 28.00917 | 21861 ft | 395 kts | 182° |
| 2026-04-28 20:44 | 43.03968 | 28.01082 | 21427 ft | 393 kts | 182° |
| 2026-04-28 20:45 | 43.01260 | 28.01247 | 21015 ft | 391 kts | 182° |
| 2026-04-28 20:45 | 42.98528 | 28.01413 | 20600 ft | 389 kts | 182° |
| 2026-04-28 20:45 | 42.95853 | 28.01573 | 20171 ft | 388 kts | 182° |
| 2026-04-28 20:45 | 42.93151 | 28.01735 | 19753 ft | 386 kts | 182° |
| 2026-04-28 20:46 | 42.90471 | 28.01825 | 19314 ft | 382 kts | 188° |
| 2026-04-28 20:46 | 42.87917 | 28.01211 | 18883 ft | 372 kts | 203° |
| 2026-04-28 20:46 | 42.85584 | 27.99775 | 18441 ft | 362 kts | 216° |
| 2026-04-28 20:46 | 42.83480 | 27.97989 | 18021 ft | 359 kts | 218° |
| 2026-04-28 20:47 | 42.81378 | 27.96131 | 17591 ft | 357 kts | 218° |
| 2026-04-28 20:47 | 42.79310 | 27.94318 | 17161 ft | 357 kts | 218° |
| 2026-04-28 20:47 | 42.77212 | 27.92504 | 16724 ft | 356 kts | 217° |
| 2026-04-28 20:47 | 42.75127 | 27.90677 | 16278 ft | 354 kts | 219° |
| 2026-04-28 20:48 | 42.73172 | 27.88680 | 15781 ft | 352 kts | 224° |
| 2026-04-28 20:48 | 42.71358 | 27.86465 | 15313 ft | 350 kts | 228° |
| 2026-04-28 20:48 | 42.69643 | 27.84181 | 14876 ft | 349 kts | 229° |
| 2026-04-28 20:48 | 42.67905 | 27.81844 | 14422 ft | 348 kts | 229° |
| 2026-04-28 20:49 | 42.66207 | 27.79565 | 13989 ft | 346 kts | 229° |
| 2026-04-28 20:49 | 42.64487 | 27.77261 | 13563 ft | 345 kts | 228° |
| 2026-04-28 20:49 | 42.62804 | 27.75015 | 13143 ft | 344 kts | 228° |
| 2026-04-28 20:49 | 42.61103 | 27.72742 | 12724 ft | 342 kts | 229° |
| 2026-04-28 20:50 | 42.59419 | 27.70475 | 12304 ft | 341 kts | 228° |
| 2026-04-28 20:50 | 42.57716 | 27.68216 | 11877 ft | 340 kts | 228° |
| 2026-04-28 20:50 | 42.56018 | 27.65972 | 11460 ft | 340 kts | 228° |
| 2026-04-28 20:50 | 42.54340 | 27.63752 | 11031 ft | 339 kts | 228° |
| 2026-04-28 20:51 | 42.52643 | 27.61504 | 10619 ft | 338 kts | 228° |
| 2026-04-28 20:51 | 42.50965 | 27.59281 | 10292 ft | 333 kts | 228° |
| 2026-04-28 20:51 | 42.49337 | 27.57129 | 10215 ft | 320 kts | 228° |
| 2026-04-28 20:51 | 42.48276 | 27.55726 | 10168 ft | 312 kts | 228° |
| 2026-04-28 20:52 | 42.46250 | 27.53048 | 9848 ft | 303 kts | 228° |
| 2026-04-28 20:52 | 42.44754 | 27.51067 | 9577 ft | 299 kts | 228° |
| 2026-04-28 20:52 | 42.43284 | 27.49125 | 9260 ft | 296 kts | 228° |
| 2026-04-28 20:52 | 42.41805 | 27.47170 | 8829 ft | 298 kts | 228° |
| 2026-04-28 20:53 | 42.38912 | 27.43370 | 8586 ft | 277 kts | 228° |
| 2026-04-28 20:53 | 42.37567 | 27.41604 | 8410 ft | 270 kts | 228° |
| 2026-04-28 20:53 | 42.36230 | 27.39839 | 8103 ft | 268 kts | 228° |
| 2026-04-28 20:54 | 42.34894 | 27.38072 | 7799 ft | 266 kts | 228° |
| 2026-04-28 20:54 | 42.33579 | 27.36334 | 7507 ft | 264 kts | 228° |
| 2026-04-28 20:54 | 42.32262 | 27.34600 | 7206 ft | 262 kts | 227° |
| 2026-04-28 20:54 | 42.30973 | 27.32896 | 6918 ft | 261 kts | 228° |
| 2026-04-28 20:55 | 42.29919 | 27.30933 | 6554 ft | 255 kts | 255° |
| 2026-04-28 20:55 | 42.29878 | 27.28653 | 6236 ft | 243 kts | 291° |
| 2026-04-28 20:55 | 42.30755 | 27.26800 | 5953 ft | 235 kts | 317° |
| 2026-04-28 20:55 | 42.31942 | 27.25268 | 5672 ft | 235 kts | 317° |
| 2026-04-28 20:56 | 42.33178 | 27.23829 | 5346 ft | 235 kts | 332° |
| 2026-04-28 20:56 | 42.34716 | 27.23341 | 5038 ft | 232 kts | 5° |
| 2026-04-28 20:56 | 42.36219 | 27.24064 | 4737 ft | 233 kts | 36° |
| 2026-04-28 20:56 | 42.37407 | 27.25558 | 4470 ft | 235 kts | 44° |
| 2026-04-28 20:57 | 42.38555 | 27.27120 | 4190 ft | 235 kts | 43° |
| 2026-04-28 20:57 | 42.39716 | 27.28683 | 3909 ft | 234 kts | 43° |
| 2026-04-28 20:57 | 42.40876 | 27.30224 | 3635 ft | 234 kts | 43° |
| 2026-04-28 20:57 | 42.42033 | 27.31752 | 3399 ft | 232 kts | 43° |
| 2026-04-28 20:58 | 42.43196 | 27.33282 | 3205 ft | 230 kts | 44° |
| 2026-04-28 20:58 | 42.44337 | 27.34781 | 3019 ft | 228 kts | 44° |
| 2026-04-28 20:58 | 42.45475 | 27.36284 | 2869 ft | 229 kts | 44° |
| 2026-04-28 20:58 | 42.46608 | 27.37780 | 2697 ft | 228 kts | 45° |
| 2026-04-28 20:59 | 42.47754 | 27.39295 | 2326 ft | 234 kts | 45° |
| 2026-04-28 20:59 | 42.48915 | 27.40832 | 2012 ft | 235 kts | 45° |
| 2026-04-28 20:59 | 42.50083 | 27.42376 | 1703 ft | 238 kts | 45° |
| 2026-04-28 20:59 | 42.51286 | 27.43965 | 1378 ft | 241 kts | 45° |
| 2026-04-28 21:00 | 42.52496 | 27.45560 | 1037 ft | 241 kts | 45° |
| 2026-04-28 21:00 | 42.53678 | 27.47116 | 739 ft | 234 kts | 45° |
| 2026-04-28 21:00 | 42.54784 | 27.48560 | 1580 ft | 223 kts | 45° |
| 2026-04-28 21:00 | 42.55922 | 27.50061 | 2451 ft | 233 kts | 45° |
| 2026-04-28 21:01 | 42.57064 | 27.51600 | 2639 ft | 230 kts | 49° |
| 2026-04-28 21:01 | 42.57936 | 27.53382 | 2677 ft | 228 kts | 67° |
| 2026-04-28 21:01 | 42.58358 | 27.55459 | 2688 ft | 227 kts | 83° |
| 2026-04-28 21:01 | 42.58332 | 27.57609 | 2690 ft | 227 kts | 99° |
| 2026-04-28 21:02 | 42.57875 | 27.59656 | 2688 ft | 228 kts | 114° |
| 2026-04-28 21:02 | 42.57016 | 27.61475 | 2687 ft | 230 kts | 130° |
| 2026-04-28 21:02 | 42.55808 | 27.62913 | 2692 ft | 230 kts | 146° |
| 2026-04-28 21:02 | 42.54368 | 27.63830 | 2696 ft | 231 kts | 162° |
| 2026-04-28 21:03 | 42.52773 | 27.64171 | 2702 ft | 233 kts | 178° |
| 2026-04-28 21:03 | 42.51174 | 27.63891 | 2705 ft | 233 kts | 194° |
| 2026-04-28 21:03 | 42.49709 | 27.63023 | 2703 ft | 229 kts | 211° |
| 2026-04-28 21:03 | 42.48467 | 27.61618 | 2712 ft | 235 kts | 227° |
| 2026-04-28 21:04 | 42.47553 | 27.59756 | 2714 ft | 239 kts | 244° |
| 2026-04-28 21:04 | 42.47062 | 27.57628 | 2715 ft | 240 kts | 259° |
| 2026-04-28 21:04 | 42.46744 | 27.55426 | 2700 ft | 233 kts | 254° |
| 2026-04-28 21:04 | 42.46168 | 27.53412 | 2696 ft | 225 kts | 239° |
| 2026-04-28 21:05 | 42.45245 | 27.51730 | 2708 ft | 224 kts | 226° |
| 2026-04-28 21:05 | 42.44173 | 27.50231 | 2708 ft | 220 kts | 223° |
| 2026-04-28 21:05 | 42.43100 | 27.48810 | 2701 ft | 211 kts | 223° |
| 2026-04-28 21:05 | 42.42043 | 27.47431 | 2820 ft | 212 kts | 223° |
| 2026-04-28 21:06 | 42.40983 | 27.46047 | 2746 ft | 211 kts | 223° |
| 2026-04-28 21:06 | 42.39920 | 27.44655 | 2722 ft | 212 kts | 223° |
| 2026-04-28 21:06 | 42.38870 | 27.43274 | 2708 ft | 212 kts | 224° |
| 2026-04-28 21:06 | 42.38099 | 27.41580 | 2663 ft | 212 kts | 258° |
| 2026-04-28 21:07 | 42.38137 | 27.39625 | 2707 ft | 209 kts | 279° |
| 2026-04-28 21:07 | 42.38394 | 27.37770 | 2734 ft | 194 kts | 282° |
| 2026-04-28 21:07 | 42.38625 | 27.36035 | 2691 ft | 180 kts | 280° |
| 2026-04-28 21:07 | 42.38811 | 27.34436 | 2657 ft | 163 kts | 285° |
| 2026-04-28 21:08 | 42.39295 | 27.33096 | 2676 ft | 159 kts | 310° |
| 2026-04-28 21:08 | 42.40165 | 27.32177 | 2691 ft | 157 kts | 337° |
| 2026-04-28 21:08 | 42.41213 | 27.31867 | 2699 ft | 155 kts | 1° |
| 2026-04-28 21:08 | 42.42257 | 27.32190 | 2704 ft | 154 kts | 26° |
| 2026-04-28 21:09 | 42.43115 | 27.33044 | 2714 ft | 154 kts | 43° |
| 2026-04-28 21:09 | 42.43872 | 27.34057 | 2711 ft | 154 kts | 46° |
| 2026-04-28 21:09 | 42.44620 | 27.35087 | 2707 ft | 153 kts | 46° |
| 2026-04-28 21:09 | 42.45379 | 27.36122 | 2706 ft | 154 kts | 45° |
| 2026-04-28 21:10 | 42.46137 | 27.37143 | 2704 ft | 154 kts | 45° |
| 2026-04-28 21:10 | 42.46910 | 27.38171 | 2633 ft | 155 kts | 45° |
| 2026-04-28 21:10 | 42.47681 | 27.39192 | 2364 ft | 154 kts | 45° |
| 2026-04-28 21:10 | 42.48447 | 27.40207 | 2181 ft | 153 kts | 45° |
| 2026-04-28 21:11 | 42.49195 | 27.41198 | 2007 ft | 152 kts | 45° |
| 2026-04-28 21:11 | 42.49921 | 27.42158 | 1839 ft | 151 kts | 46° |
| 2026-04-28 21:11 | 42.50676 | 27.43155 | 1659 ft | 152 kts | 46° |
| 2026-04-28 21:11 | 42.51435 | 27.44157 | 1419 ft | 152 kts | 46° |
| 2026-04-28 21:12 | 42.52190 | 27.45145 | 1139 ft | 148 kts | 45° |
| 2026-04-28 21:12 | 42.52924 | 27.46112 | 932 ft | 147 kts | 45° |
| 2026-04-28 21:12 | 42.53653 | 27.47067 | 759 ft | 147 kts | 46° |
| 2026-04-28 21:12 | 42.54386 | 27.48046 | 577 ft | 146 kts | 46° |
| 2026-04-28 21:13 | 42.55112 | 27.48998 | 371 ft | 146 kts | 46° |
| 2026-04-28 21:13 | 42.55842 | 27.49961 | 178 ft | 145 kts | 46° |
| 2026-04-28 21:13 | 42.56538 | 27.50897 | 119 ft | 130 kts | 46° |
| 2026-04-28 21:13 | 42.57068 | 27.51600 | 137 ft | 82 kts | 43° |
| 2026-04-28 21:14 | 42.57355 | 27.51975 | 135 ft | 32 kts | 45° |
| 2026-04-28 21:14 | 42.57408 | 27.52048 | 134 ft | 0 kts | 46° |
| 2026-04-28 21:14 | 42.57409 | 27.52049 | 134 ft | 1 kts | 46° |
| 2026-04-28 21:14 | 42.57442 | 27.52096 | 134 ft | 12 kts | 45° |
| 2026-04-28 21:15 | 42.57529 | 27.52210 | 131 ft | 22 kts | 44° |
| 2026-04-28 21:15 | 42.57642 | 27.52362 | 127 ft | 21 kts | 53° |
| 2026-04-28 21:15 | 42.57661 | 27.52542 | 127 ft | 16 kts | 90° |
| 2026-04-28 21:15 | 42.57630 | 27.52658 | 129 ft | 13 kts | 150° |
| 2026-04-28 21:16 | 42.57536 | 27.52629 | 131 ft | 17 kts | 220° |
| 2026-04-28 21:16 | 42.57437 | 27.52515 | 134 ft | 20 kts | 220° |
| 2026-04-28 21:16 | 42.57319 | 27.52436 | 136 ft | 12 kts | 148° |
| 2026-04-28 21:16 | 42.57294 | 27.52437 | 136 ft | 5 kts | 239° |
| 2026-04-28 21:17 | 42.57275 | 27.52332 | 137 ft | 11 kts | 223° |
| 2026-04-28 21:17 | 42.57200 | 27.52242 | 139 ft | 18 kts | 219° |
| 2026-04-28 21:17 | 42.57091 | 27.52117 | 144 ft | 22 kts | 220° |
| 2026-04-28 21:17 | 42.56976 | 27.51986 | 146 ft | 19 kts | 219° |
| 2026-04-28 21:18 | 42.56883 | 27.51881 | 145 ft | 5 kts | 219° |
| 2026-04-28 21:18 | 42.56854 | 27.51883 | 146 ft | 5 kts | 113° |
| 2026-04-28 21:18 | 42.56847 | 27.51926 | 147 ft | 4 kts | 93° |
| 2026-04-28 21:18 | 42.56846 | 27.51942 | 148 ft | 0 kts | 93° |